createdAt,value
2023-04-09T00:02:28.130Z,232.10
2023-04-09T00:04:55.841Z,237.70
2023-04-09T00:07:23.593Z,243.50
2023-04-09T00:09:51.246Z,228.93
2023-04-09T00:12:18.923Z,243.37
2023-04-09T00:14:46.668Z,247.60
2023-04-09T00:17:14.515Z,238.47
2023-04-09T00:19:43.590Z,232.03
2023-04-09T00:22:11.423Z,228.67
2023-04-09T00:24:39.039Z,244.13
2023-04-09T00:27:06.992Z,225.10
2023-04-09T00:29:34.736Z,229.50
2023-04-09T00:32:02.743Z,235.17
2023-04-09T00:34:30.530Z,221.47
2023-04-09T00:36:59.706Z,235.83
2023-04-09T00:39:28.092Z,224.97
2023-04-09T00:41:59.291Z,232.93
2023-04-09T00:44:26.929Z,218.50
2023-04-09T00:46:55.493Z,238.13
2023-04-09T00:49:24.695Z,220.60
2023-04-09T00:51:52.396Z,235.43
2023-04-09T00:54:21.509Z,224.17
2023-04-09T00:56:49.202Z,236.97
2023-04-09T00:59:17.599Z,221.70
2023-04-09T01:01:46.191Z,232.47
2023-04-09T01:04:13.975Z,222.63
2023-04-09T01:06:50.686Z,223.30
2023-04-09T01:09:28.709Z,225.27
2023-04-09T01:12:07.422Z,227.97
2023-04-09T01:14:39.865Z,241.13
2023-04-09T01:17:16.630Z,214.37
2023-04-09T01:19:49.922Z,233.50
2023-04-09T01:22:31.498Z,231.60
2023-04-09T01:25:08.058Z,217.80
2023-04-09T01:27:52.614Z,213.63
2023-04-09T01:30:22.741Z,214.07
2023-04-09T01:32:52.767Z,232.30
2023-04-09T01:35:21.812Z,219.13
2023-04-09T01:37:50.666Z,226.57
2023-04-09T01:40:18.415Z,225.90
2023-04-09T01:42:47.277Z,211.20
2023-04-09T01:45:16.717Z,229.00
2023-04-09T01:47:46.592Z,193.70
2023-04-09T01:50:14.324Z,215.97
2023-04-09T01:52:42.172Z,204.40
2023-04-09T01:55:10.126Z,212.20
2023-04-09T01:57:37.796Z,204.57
2023-04-09T02:00:09.324Z,195.63
2023-04-09T02:03:00.257Z,167.17
2023-04-09T02:05:32.844Z,177.53
2023-04-09T02:08:05.061Z,177.43
2023-04-09T02:10:35.478Z,172.20
2023-04-09T02:13:06.721Z,179.57
2023-04-09T02:15:37.487Z,174.33
2023-04-09T02:18:21.374Z,168.20
2023-04-09T02:20:49.339Z,175.70
2023-04-09T02:23:16.993Z,177.97
2023-04-09T02:25:45.475Z,182.17
2023-04-09T02:28:13.317Z,168.13
2023-04-09T02:30:47.064Z,148.40
2023-04-09T02:33:16.258Z,165.40
2023-04-09T02:35:44.504Z,166.20
2023-04-09T02:38:13.804Z,164.00
2023-04-09T02:40:42.030Z,169.47
2023-04-09T02:43:09.923Z,171.70
2023-04-09T02:45:37.906Z,171.07
2023-04-09T02:48:05.990Z,164.20
2023-04-09T02:50:37.536Z,158.63
2023-04-09T02:53:05.218Z,160.50
2023-04-09T02:55:33.050Z,161.13
2023-04-09T02:58:00.795Z,162.77
2023-04-09T03:00:28.514Z,172.47
2023-04-09T03:02:58.034Z,161.60
2023-04-09T03:05:26.106Z,159.40
2023-04-09T03:07:55.989Z,159.80
2023-04-09T03:10:23.888Z,154.47
2023-04-09T03:12:51.540Z,161.47
2023-04-09T03:15:19.403Z,158.93
2023-04-09T03:17:47.107Z,164.87
2023-04-09T03:20:14.819Z,162.27
2023-04-09T03:22:43.159Z,169.03
2023-04-09T03:25:23.625Z,158.83
2023-04-09T03:27:54.966Z,161.77
2023-04-09T03:30:36.004Z,157.90
2023-04-09T03:33:06.751Z,174.80
2023-04-09T03:35:43.304Z,168.50
2023-04-09T03:38:12.176Z,177.70
2023-04-09T03:40:41.971Z,160.77
2023-04-09T03:43:09.890Z,178.20
2023-04-09T03:45:39.916Z,169.60
2023-04-09T03:48:22.302Z,170.57
2023-04-09T03:50:50.990Z,165.40
2023-04-09T03:53:26.350Z,183.47
2023-04-09T03:56:02.919Z,171.00
2023-04-09T03:58:30.996Z,177.70
2023-04-09T04:00:59.555Z,182.17
2023-04-09T04:03:36.375Z,178.47
2023-04-09T04:06:39.610Z,172.23
2023-04-09T04:09:20.336Z,170.47
2023-04-09T04:11:55.852Z,177.80
2023-04-09T04:14:27.045Z,179.63
2023-04-09T04:17:02.200Z,174.40
2023-04-09T04:19:31.652Z,186.77
2023-04-09T04:22:00.648Z,192.27
2023-04-09T04:24:28.522Z,181.07
2023-04-09T04:26:57.740Z,182.17
2023-04-09T04:29:31.594Z,186.10
2023-04-09T04:32:01.980Z,182.80
2023-04-09T04:34:35.784Z,174.07
2023-04-09T04:37:10.904Z,166.20
2023-04-09T04:39:38.537Z,189.53
2023-04-09T04:42:12.588Z,176.53
2023-04-09T04:44:40.820Z,180.00
2023-04-09T04:47:30.714Z,169.70
2023-04-09T04:49:59.693Z,182.07
2023-04-09T04:52:27.406Z,174.10
2023-04-09T04:54:55.390Z,184.03
2023-04-09T04:57:26.173Z,177.93
2023-04-09T04:59:54.526Z,178.70
2023-04-09T05:02:22.607Z,178.40
2023-04-09T05:05:09.204Z,169.73
2023-04-09T05:07:42.661Z,183.97
2023-04-09T05:10:10.843Z,174.33
2023-04-09T05:12:43.111Z,168.10
2023-04-09T05:15:13.187Z,175.73
2023-04-09T05:17:43.738Z,179.93
2023-04-09T05:20:12.871Z,165.90
2023-04-09T05:22:49.300Z,176.53
2023-04-09T05:25:17.410Z,167.80
2023-04-09T05:27:46.601Z,178.87
2023-04-09T05:30:14.414Z,179.37
2023-04-09T05:32:42.979Z,181.67
2023-04-09T05:35:10.856Z,183.80
2023-04-09T05:37:42.273Z,180.13
2023-04-09T05:40:11.113Z,184.90
2023-04-09T05:42:39.032Z,190.50
2023-04-09T05:45:14.536Z,186.07
2023-04-09T05:47:48.958Z,182.57
2023-04-09T05:50:23.320Z,185.83
2023-04-09T05:52:54.437Z,178.80
2023-04-09T05:55:27.508Z,194.07
2023-04-09T05:57:59.918Z,188.97
2023-04-09T06:00:29.343Z,190.23
2023-04-09T06:02:57.157Z,194.07
2023-04-09T06:05:24.839Z,201.00
2023-04-09T06:07:52.642Z,183.37
2023-04-09T06:10:20.478Z,204.57
2023-04-09T06:12:49.541Z,190.43
2023-04-09T06:15:18.592Z,200.97
2023-04-09T06:17:47.768Z,211.80
2023-04-09T06:20:15.535Z,199.77
2023-04-09T06:22:43.154Z,213.20
2023-04-09T06:25:10.967Z,202.03
2023-04-09T06:27:38.646Z,200.17
2023-04-09T06:30:07.759Z,229.93
2023-04-09T06:32:47.007Z,231.47
2023-04-09T06:35:22.555Z,197.47
2023-04-09T06:37:50.359Z,214.47
2023-04-09T06:40:20.146Z,208.80
2023-04-09T06:42:49.073Z,222.53
2023-04-09T06:45:23.009Z,203.93
2023-04-09T06:47:50.982Z,204.47
2023-04-09T06:50:18.767Z,209.00
2023-04-09T06:52:47.805Z,216.80
2023-04-09T06:55:15.559Z,224.27
2023-04-09T06:57:43.288Z,211.50
2023-04-09T07:00:12.140Z,229.67
2023-04-09T07:02:40.477Z,220.47
2023-04-09T07:05:09.288Z,224.93
2023-04-09T07:07:37.028Z,231.37
2023-04-09T07:10:07.316Z,232.73
2023-04-09T07:12:35.670Z,235.83
2023-04-09T07:15:05.780Z,233.97
2023-04-09T07:17:34.069Z,242.70
2023-04-09T07:20:01.992Z,238.20
2023-04-09T07:22:30.676Z,236.67
2023-04-09T07:24:58.358Z,241.00
2023-04-09T07:27:28.848Z,217.13
2023-04-09T07:29:57.090Z,250.40
2023-04-09T07:32:25.379Z,262.97
2023-04-09T07:34:53.563Z,261.10
2023-04-09T07:37:21.754Z,240.87
2023-04-09T07:39:51.201Z,254.90
2023-04-09T07:42:19.068Z,247.40
2023-04-09T07:44:48.093Z,261.65
2023-04-09T07:47:15.992Z,254.27
2023-04-09T07:49:43.896Z,274.58
2023-04-09T07:52:11.696Z,252.70
2023-04-09T07:54:39.389Z,246.77
2023-04-09T07:57:08.099Z,261.20
2023-04-09T07:59:36.304Z,268.85
2023-04-09T08:02:05.503Z,270.58
2023-04-09T08:04:33.586Z,262.67
2023-04-09T08:07:01.575Z,270.77
2023-04-09T08:09:29.374Z,261.08
2023-04-09T08:11:57.199Z,249.73
2023-04-09T08:14:24.938Z,237.27
2023-04-09T08:16:53.033Z,250.60
2023-04-09T08:19:22.207Z,226.68
2023-04-09T08:21:49.953Z,219.35
2023-04-09T08:24:18.291Z,236.98
2023-04-09T08:26:46.168Z,223.70
2023-04-09T08:29:14.411Z,223.73
2023-04-09T08:31:42.989Z,221.25
2023-04-09T08:34:10.861Z,211.80
2023-04-09T08:36:40.243Z,198.60
2023-04-09T08:39:07.973Z,204.30
2023-04-09T08:41:39.171Z,210.13
2023-04-09T08:44:07.255Z,209.57
2023-04-09T08:46:37.101Z,197.95
2023-04-09T08:49:04.900Z,204.38
2023-04-09T08:51:32.935Z,195.57
2023-04-09T08:54:04.610Z,206.63
2023-04-09T08:56:33.424Z,214.27
2023-04-09T08:59:01.222Z,201.70
2023-04-09T09:01:30.481Z,193.65
2023-04-09T09:04:00.007Z,182.95
2023-04-09T09:06:30.025Z,193.77
2023-04-09T09:09:05.226Z,177.05
2023-04-09T09:11:33.453Z,177.15
2023-04-09T09:14:03.397Z,183.15
2023-04-09T09:16:33.161Z,172.45
2023-04-09T09:19:01.917Z,172.95
2023-04-09T09:21:30.576Z,155.52
2023-04-09T09:23:58.785Z,151.45
2023-04-09T09:26:30.057Z,146.95
2023-04-09T09:28:59.753Z,149.40
2023-04-09T09:31:27.912Z,148.98
2023-04-09T09:33:56.382Z,138.68
2023-04-09T09:36:34.047Z,151.50
2023-04-09T09:39:09.986Z,141.52
2023-04-09T09:41:39.834Z,133.80
2023-04-09T09:44:08.003Z,133.93
2023-04-09T09:46:38.313Z,131.88
2023-04-09T09:49:06.183Z,125.07
2023-04-09T09:51:36.878Z,122.43
2023-04-09T09:54:04.953Z,123.10
2023-04-09T09:56:36.040Z,120.70
2023-04-09T09:59:14.055Z,118.65
2023-04-09T10:01:42.678Z,118.00
2023-04-09T10:04:15.687Z,108.93
2023-04-09T10:06:45.157Z,109.72
2023-04-09T10:09:13.823Z,114.07
2023-04-09T10:11:45.442Z,108.13
2023-04-09T10:14:15.326Z,128.35
2023-04-09T10:16:43.368Z,113.70
2023-04-09T10:19:14.174Z,115.25
2023-04-09T10:21:48.625Z,105.57
2023-04-09T10:24:17.324Z,118.20
2023-04-09T10:26:46.016Z,112.80
2023-04-09T10:29:16.898Z,103.43
2023-04-09T10:31:50.071Z,101.35
2023-04-09T10:34:19.403Z,106.13
2023-04-09T10:36:51.560Z,97.43
2023-04-09T10:39:19.527Z,100.32
2023-04-09T10:41:48.971Z,99.88
2023-04-09T10:44:25.239Z,105.65
2023-04-09T10:46:55.186Z,101.45
2023-04-09T10:49:24.272Z,107.72
2023-04-09T10:51:53.405Z,112.50
2023-04-09T10:54:43.681Z,109.55
2023-04-09T10:57:13.622Z,110.47
2023-04-09T10:59:44.897Z,111.47
2023-04-09T11:02:55.866Z,105.43
2023-04-09T11:05:30.082Z,103.32
2023-04-09T11:08:04.163Z,105.75
2023-04-09T11:10:32.309Z,104.90
2023-04-09T11:13:00.431Z,101.10
2023-04-09T11:15:30.100Z,108.18
2023-04-09T11:17:58.535Z,115.15
2023-04-09T11:20:27.465Z,105.60
2023-04-09T11:22:56.617Z,106.13
2023-04-09T11:25:26.323Z,111.25
2023-04-09T11:27:54.820Z,109.60
2023-04-09T11:30:22.738Z,100.68
2023-04-09T11:32:52.350Z,112.68
2023-04-09T11:35:22.143Z,104.80
2023-04-09T11:37:52.233Z,93.30
2023-04-09T11:40:22.003Z,107.50
2023-04-09T11:42:51.255Z,95.75
2023-04-09T11:45:20.417Z,91.45
2023-04-09T11:47:48.409Z,88.80
2023-04-09T11:50:17.609Z,90.65
2023-04-09T11:52:46.205Z,92.07
2023-04-09T11:55:23.491Z,81.80
2023-04-09T11:57:53.040Z,83.05
2023-04-09T12:00:21.268Z,79.47
2023-04-09T12:02:50.484Z,77.88
2023-04-09T12:05:24.706Z,74.97
2023-04-09T12:07:56.605Z,72.22
2023-04-09T12:10:28.275Z,78.90
2023-04-09T12:12:56.247Z,81.55
2023-04-09T12:15:25.712Z,89.60
2023-04-09T12:17:57.024Z,83.43
2023-04-09T12:20:34.359Z,80.28
2023-04-09T12:23:05.726Z,77.05
2023-04-09T12:25:35.405Z,73.65
2023-04-09T12:28:03.678Z,69.95
2023-04-09T12:30:31.424Z,73.82
2023-04-09T12:32:59.842Z,76.57
2023-04-09T12:35:28.194Z,79.90
2023-04-09T12:37:57.525Z,90.55
2023-04-09T12:40:25.186Z,91.43
2023-04-09T12:42:53.146Z,96.60
2023-04-09T12:45:21.496Z,93.43
2023-04-09T12:47:49.428Z,93.68
2023-04-09T12:50:17.193Z,95.95
2023-04-09T12:52:45.427Z,98.88
2023-04-09T12:55:15.081Z,103.15
2023-04-09T12:57:45.267Z,104.72
2023-04-09T13:00:14.285Z,104.70
2023-04-09T13:02:42.413Z,106.53
2023-04-09T13:05:10.615Z,116.13
2023-04-09T13:07:38.592Z,115.25
2023-04-09T13:10:07.717Z,119.15
2023-04-09T13:12:36.751Z,100.63
2023-04-09T13:15:05.053Z,102.13
2023-04-09T13:17:32.816Z,102.90
2023-04-09T13:20:01.271Z,96.82
2023-04-09T13:22:28.998Z,93.47
2023-04-09T13:24:56.863Z,102.35
2023-04-09T13:27:24.710Z,92.10
2023-04-09T13:29:53.906Z,85.53
2023-04-09T13:32:24.064Z,102.93
2023-04-09T13:34:53.645Z,94.57
2023-04-09T13:37:21.513Z,100.00
2023-04-09T13:39:49.270Z,99.57
2023-04-09T13:42:17.084Z,93.30
2023-04-09T13:44:45.523Z,92.18
2023-04-09T13:47:18.123Z,92.70
2023-04-09T13:49:46.176Z,95.40
2023-04-09T13:52:15.737Z,91.88
2023-04-09T13:54:43.381Z,92.82
2023-04-09T13:57:11.272Z,86.90
2023-04-09T13:59:39.107Z,83.70
2023-04-09T14:02:06.987Z,94.60
2023-04-09T14:04:36.147Z,90.30
2023-04-09T14:07:04.001Z,84.00
2023-04-09T14:09:31.915Z,77.03
2023-04-09T14:11:59.589Z,82.20
2023-04-09T14:14:27.562Z,76.88
2023-04-09T14:16:55.312Z,72.90
2023-04-09T14:19:24.074Z,74.78
2023-04-09T14:21:54.081Z,80.20
2023-04-09T14:24:23.122Z,82.95
2023-04-09T14:26:53.007Z,80.47
2023-04-09T14:29:20.826Z,76.57
2023-04-09T14:31:48.845Z,80.22
2023-04-09T14:34:16.541Z,70.07
2023-04-09T14:36:44.253Z,74.20
2023-04-09T14:39:13.274Z,67.43
2023-04-09T14:41:41.537Z,78.28
2023-04-09T14:44:09.335Z,76.47
2023-04-09T14:46:38.085Z,79.68
2023-04-09T14:49:06.258Z,76.80
2023-04-09T14:51:34.075Z,70.40
2023-04-09T14:54:02.516Z,75.88
2023-04-09T14:56:31.506Z,73.47
2023-04-09T14:58:59.225Z,69.07
2023-04-09T15:01:27.155Z,66.85
2023-04-09T15:03:55.652Z,68.72
2023-04-09T15:06:23.586Z,72.70
2023-04-09T15:08:51.519Z,75.68
2023-04-09T15:11:22.771Z,68.28
2023-04-09T15:13:52.333Z,77.43
2023-04-09T15:16:24.494Z,76.68
2023-04-09T15:18:52.851Z,75.13
2023-04-09T15:21:20.758Z,70.82
2023-04-09T15:23:48.673Z,77.88
2023-04-09T15:26:16.971Z,73.03
2023-04-09T15:28:46.087Z,69.10
2023-04-09T15:31:15.183Z,74.55
2023-04-09T15:33:43.722Z,61.85
2023-04-09T15:36:11.962Z,66.03
2023-04-09T15:38:40.068Z,67.28
2023-04-09T15:41:07.819Z,76.25
2023-04-09T15:43:35.596Z,69.82
2023-04-09T15:46:08.856Z,68.75
2023-04-09T15:48:38.187Z,75.88
2023-04-09T15:51:06.685Z,75.10
2023-04-09T15:53:34.361Z,76.00
2023-04-09T15:56:02.158Z,78.03
2023-04-09T15:58:29.883Z,70.57
2023-04-09T16:00:57.598Z,71.75
2023-04-09T16:03:25.615Z,67.68
2023-04-09T16:05:54.614Z,75.32
2023-04-09T16:08:22.301Z,71.68
2023-04-09T16:10:50.389Z,78.68
2023-04-09T16:13:18.036Z,71.22
2023-04-09T16:15:46.702Z,73.43
2023-04-09T16:18:14.453Z,76.07
2023-04-09T16:20:42.181Z,71.35
2023-04-09T16:23:11.213Z,72.78
2023-04-09T16:25:39.016Z,73.57
2023-04-09T16:28:06.731Z,81.15
2023-04-09T16:30:34.374Z,80.63
2023-04-09T16:33:02.236Z,79.65
2023-04-09T16:35:29.947Z,78.82
2023-04-09T16:37:57.730Z,80.40
2023-04-09T16:40:26.779Z,80.47
2023-04-09T16:42:54.511Z,75.15
2023-04-09T16:45:22.483Z,84.55
2023-04-09T16:47:53.373Z,78.22
2023-04-09T16:50:21.851Z,75.28
2023-04-09T16:52:49.801Z,77.43
2023-04-09T16:55:18.704Z,77.05
2023-04-09T16:57:47.663Z,79.47
2023-04-09T17:00:17.342Z,77.75
2023-04-09T17:02:45.782Z,74.45
2023-04-09T17:05:13.700Z,72.25
2023-04-09T17:07:41.421Z,74.65
2023-04-09T17:10:09.977Z,61.55
2023-04-09T17:12:38.046Z,67.53
2023-04-09T17:15:08.543Z,70.03
2023-04-09T17:17:36.297Z,75.97
2023-04-09T17:20:04.502Z,70.35
2023-04-09T17:22:32.395Z,68.60
2023-04-09T17:25:00.351Z,74.30
2023-04-09T17:27:28.558Z,77.95
2023-04-09T17:29:56.343Z,76.05
2023-04-09T17:32:25.455Z,65.93
2023-04-09T17:34:53.254Z,73.30
2023-04-09T17:37:21.168Z,79.25
2023-04-09T17:39:48.866Z,73.30
2023-04-09T17:42:16.686Z,74.13
2023-04-09T17:44:45.930Z,75.40
2023-04-09T17:47:13.688Z,79.28
2023-04-09T17:49:42.716Z,79.00
2023-04-09T17:52:10.500Z,78.70
2023-04-09T17:54:39.110Z,78.90
2023-04-09T17:57:07.872Z,84.97
2023-04-09T17:59:35.707Z,97.50
2023-04-09T18:02:03.627Z,111.95
2023-04-09T18:04:32.501Z,110.28
2023-04-09T18:07:01.899Z,111.82
2023-04-09T18:09:29.642Z,105.40
2023-04-09T18:11:57.753Z,116.50
2023-04-09T18:14:25.568Z,114.10
2023-04-09T18:16:53.583Z,108.05
2023-04-09T18:19:21.752Z,117.70
2023-04-09T18:21:49.383Z,119.07
2023-04-09T18:24:18.973Z,104.13
2023-04-09T18:26:46.594Z,110.88
2023-04-09T18:29:14.316Z,106.75
2023-04-09T18:31:42.034Z,113.05
2023-04-09T18:34:09.752Z,108.80
2023-04-09T18:36:37.623Z,114.67
2023-04-09T18:39:05.774Z,116.23
2023-04-09T18:41:34.848Z,120.77
2023-04-09T18:44:03.964Z,126.07
2023-04-09T18:46:32.057Z,124.80
2023-04-09T18:48:59.806Z,128.27
2023-04-09T18:51:27.963Z,136.23
2023-04-09T18:53:55.842Z,150.80
2023-04-09T18:56:24.596Z,150.57
2023-04-09T18:58:53.859Z,153.40
2023-04-09T19:01:22.142Z,153.33
2023-04-09T19:03:49.929Z,151.40
2023-04-09T19:06:19.824Z,160.77
2023-04-09T19:08:47.921Z,162.10
2023-04-09T19:11:16.118Z,158.67
2023-04-09T19:13:43.764Z,163.60
2023-04-09T19:16:13.146Z,166.40
2023-04-09T19:18:40.891Z,181.47
2023-04-09T19:21:08.970Z,171.47
2023-04-09T19:23:36.638Z,181.23
2023-04-09T19:26:05.377Z,187.07
2023-04-09T19:28:33.267Z,193.47
2023-04-09T19:31:02.815Z,190.73
2023-04-09T19:33:32.701Z,185.17
2023-04-09T19:36:00.420Z,197.63
2023-04-09T19:38:28.174Z,177.50
2023-04-09T19:40:56.159Z,198.83
2023-04-09T19:43:23.979Z,192.90
2023-04-09T19:45:51.670Z,184.97
2023-04-09T19:48:19.441Z,184.57
2023-04-09T19:50:48.878Z,174.87
2023-04-09T19:53:16.604Z,178.73
2023-04-09T19:55:44.613Z,179.90
2023-04-09T19:58:12.276Z,185.27
2023-04-09T20:00:39.998Z,196.97
2023-04-09T20:03:08.037Z,184.20
2023-04-09T20:05:35.847Z,198.73
2023-04-09T20:08:05.575Z,213.67
2023-04-09T20:10:33.314Z,198.83
2023-04-09T20:13:01.614Z,221.17
2023-04-09T20:15:29.690Z,215.67
2023-04-09T20:17:57.390Z,214.30
2023-04-09T20:20:25.177Z,201.80
2023-04-09T20:22:56.144Z,200.57
2023-04-09T20:25:27.814Z,192.60
2023-04-09T20:27:55.830Z,223.13
2023-04-09T20:30:23.620Z,205.33
2023-04-09T20:32:51.584Z,211.43
2023-04-09T20:35:19.399Z,204.33
2023-04-09T20:37:48.378Z,209.50
2023-04-09T20:40:16.454Z,201.67
2023-04-09T20:42:45.509Z,193.50
2023-04-09T20:45:13.225Z,210.87
2023-04-09T20:47:40.931Z,203.43
2023-04-09T20:50:09.784Z,183.70
2023-04-09T20:52:38.219Z,204.43
2023-04-09T20:55:07.388Z,204.10
2023-04-09T20:57:35.037Z,216.30
2023-04-09T21:00:04.230Z,199.67
2023-04-09T21:02:32.083Z,199.83
2023-04-09T21:05:05.475Z,204.60
2023-04-09T21:07:42.953Z,196.70
2023-04-09T21:10:10.909Z,209.00
2023-04-09T21:12:38.551Z,207.37
2023-04-09T21:15:09.094Z,206.40
2023-04-09T21:17:36.797Z,192.60
2023-04-09T21:20:05.241Z,192.27
2023-04-09T21:22:32.979Z,196.20
2023-04-09T21:25:00.682Z,190.27
2023-04-09T21:27:28.339Z,199.40
2023-04-09T21:29:56.044Z,182.50
2023-04-09T21:32:25.248Z,207.60
2023-04-09T21:34:53.064Z,204.47
2023-04-09T21:37:20.723Z,200.80
2023-04-09T21:39:48.771Z,195.53
2023-04-09T21:42:16.813Z,190.73
2023-04-09T21:44:44.537Z,195.67
2023-04-09T21:47:13.058Z,181.97
2023-04-09T21:49:42.993Z,174.80
2023-04-09T21:52:14.920Z,187.37
2023-04-09T21:54:43.177Z,167.67
2023-04-09T21:57:11.060Z,176.63
2023-04-09T21:59:40.972Z,183.03
2023-04-09T22:02:08.690Z,194.47
2023-04-09T22:04:36.553Z,188.87
2023-04-09T22:07:05.680Z,182.13
2023-04-09T22:09:33.470Z,176.03
2023-04-09T22:12:02.615Z,188.50
2023-04-09T22:14:32.341Z,207.67
2023-04-09T22:17:01.512Z,184.87
2023-04-09T22:19:31.424Z,182.43
2023-04-09T22:21:59.684Z,179.93
2023-04-09T22:24:30.079Z,183.80
2023-04-09T22:26:58.823Z,156.17
2023-04-09T22:29:27.671Z,178.70
2023-04-09T22:31:55.714Z,175.20
2023-04-09T22:34:23.624Z,175.00
2023-04-09T22:36:51.536Z,166.77
2023-04-09T22:39:19.661Z,150.67
2023-04-09T22:41:48.659Z,169.10
2023-04-09T22:44:16.437Z,173.87
2023-04-09T22:46:44.547Z,164.30
2023-04-09T22:49:12.335Z,165.90
2023-04-09T22:51:41.763Z,172.83
2023-04-09T22:54:09.780Z,153.90
2023-04-09T22:56:37.677Z,165.63
2023-04-09T22:59:07.073Z,158.20
2023-04-09T23:01:34.879Z,167.10
2023-04-09T23:04:02.595Z,173.23
2023-04-09T23:06:30.837Z,163.77
2023-04-09T23:08:59.723Z,158.27
2023-04-09T23:11:27.572Z,164.43
2023-04-09T23:13:55.326Z,161.67
2023-04-09T23:16:24.374Z,169.33
2023-04-09T23:18:52.325Z,164.17
2023-04-09T23:21:20.759Z,152.73
2023-04-09T23:23:48.397Z,160.87
2023-04-09T23:26:16.113Z,174.63
2023-04-09T23:28:43.769Z,161.57
2023-04-09T23:31:11.589Z,154.17
2023-04-09T23:33:40.713Z,168.30
2023-04-09T23:36:09.040Z,160.83
2023-04-09T23:38:36.790Z,146.63
2023-04-09T23:41:04.562Z,154.40
2023-04-09T23:43:32.448Z,167.03
2023-04-09T23:46:00.071Z,173.20
2023-04-09T23:48:27.824Z,173.67
2023-04-09T23:50:56.848Z,173.83
2023-04-09T23:53:24.658Z,148.77
2023-04-09T23:55:52.613Z,165.60
2023-04-09T23:58:21.294Z,160.43
